createdAt,value
2023-02-14T00:00:43.626Z,79.30
2023-02-14T00:08:54.197Z,79.20
2023-02-14T00:16:59.911Z,79.10
2023-02-14T00:25:08.514Z,79.30
2023-02-14T00:33:13.827Z,79.20
2023-02-14T00:41:22.114Z,79.60
2023-02-14T00:49:29.146Z,80.30
2023-02-14T00:57:40.021Z,79.60
2023-02-14T01:05:45.404Z,81.40
2023-02-14T01:13:54.503Z,81.20
2023-02-14T01:22:01.590Z,81.00
2023-02-14T01:30:11.455Z,81.60
2023-02-14T01:38:16.937Z,80.90
2023-02-14T01:46:25.239Z,80.90
2023-02-14T01:54:32.412Z,81.10
2023-02-14T02:02:40.433Z,81.20
2023-02-14T02:10:45.877Z,81.20
2023-02-14T02:19:07.645Z,81.60
2023-02-14T02:27:31.558Z,81.90
2023-02-14T02:35:57.907Z,82.10
2023-02-14T02:44:13.143Z,82.00
2023-02-14T02:52:42.047Z,81.30
2023-02-14T03:00:49.102Z,81.60
2023-02-14T03:08:57.157Z,81.40
2023-02-14T03:17:31.126Z,81.70
2023-02-14T03:25:49.891Z,81.40
2023-02-14T03:34:02.640Z,82.20
2023-02-14T03:42:15.612Z,81.80
2023-02-14T03:50:22.842Z,81.40
2023-02-14T03:58:34.850Z,81.00
2023-02-14T04:06:40.175Z,81.70
2023-02-14T04:14:48.173Z,81.20
2023-02-14T04:22:54.189Z,80.90
2023-02-14T04:31:04.548Z,78.70
2023-02-14T04:39:10.103Z,79.70
2023-02-14T04:47:18.182Z,79.80
2023-02-14T04:55:23.593Z,79.80
2023-02-14T05:03:31.653Z,78.80
2023-02-14T05:11:37.174Z,78.80
2023-02-14T05:19:45.244Z,78.70
2023-02-14T05:27:50.642Z,77.90
2023-02-14T05:36:01.232Z,78.00
2023-02-14T05:44:06.537Z,78.40
2023-02-14T05:52:14.569Z,77.60
2023-02-14T06:00:21.478Z,78.10
2023-02-14T06:08:29.547Z,78.10
2023-02-14T06:16:34.990Z,78.40
2023-02-14T06:24:42.974Z,78.80
2023-02-14T06:32:48.481Z,79.20
2023-02-14T06:40:57.597Z,78.20
2023-02-14T06:49:04.104Z,77.70
2023-02-14T06:57:12.084Z,77.90
2023-02-14T07:05:19.246Z,79.10
2023-02-14T07:13:27.800Z,78.50
2023-02-14T07:21:33.222Z,78.70
2023-02-14T07:29:41.209Z,78.80
2023-02-14T07:37:46.568Z,77.90
2023-02-14T07:45:54.616Z,77.70
2023-02-14T07:54:00.141Z,79.00
2023-02-14T08:02:08.066Z,79.50
2023-02-14T08:10:14.885Z,79.60
2023-02-14T08:18:23.484Z,79.20
2023-02-14T08:26:28.942Z,78.10
2023-02-14T08:34:36.979Z,77.20
2023-02-14T08:42:42.333Z,77.30
2023-02-14T08:50:50.382Z,78.80
2023-02-14T08:58:57.154Z,76.60
2023-02-14T09:07:05.726Z,75.20
2023-02-14T09:15:12.971Z,77.20
2023-02-14T09:23:21.249Z,75.90
2023-02-14T09:31:28.252Z,74.90
2023-02-14T09:39:36.685Z,74.60
2023-02-14T09:47:48.019Z,74.20
2023-02-14T09:56:03.858Z,75.30
2023-02-14T10:04:24.793Z,74.80
2023-02-14T10:12:38.100Z,73.50
2023-02-14T10:20:47.331Z,73.40
2023-02-14T10:28:56.160Z,71.50
2023-02-14T10:37:20.842Z,70.60
2023-02-14T10:45:36.626Z,70.90
2023-02-14T10:53:48.948Z,70.80
2023-02-14T11:01:59.510Z,69.30
2023-02-14T11:10:05.257Z,71.20
2023-02-14T11:18:25.232Z,70.00
2023-02-14T11:26:34.659Z,70.30
2023-02-14T11:34:44.976Z,68.60
2023-02-14T11:42:54.616Z,69.50
2023-02-14T11:51:10.007Z,69.20
2023-02-14T11:59:22.434Z,70.40
2023-02-14T12:07:34.433Z,70.70
2023-02-14T12:15:41.325Z,71.70
2023-02-14T12:24:00.028Z,69.40
2023-02-14T12:32:23.212Z,69.10
2023-02-14T12:40:40.235Z,68.90
2023-02-14T12:49:00.809Z,68.00
2023-02-14T12:57:20.770Z,67.60
2023-02-14T13:05:34.695Z,67.50
2023-02-14T13:14:04.504Z,66.40
2023-02-14T13:22:15.115Z,66.00
2023-02-14T13:30:31.071Z,65.10
2023-02-14T13:38:41.535Z,64.40
2023-02-14T13:46:56.737Z,65.70
2023-02-14T13:55:05.982Z,66.70
2023-02-14T14:03:16.917Z,66.00
2023-02-14T14:12:06.399Z,64.70
2023-02-14T14:20:48.018Z,65.20
2023-02-14T14:28:53.750Z,65.50
2023-02-14T14:37:11.621Z,65.50
2023-02-14T14:45:26.113Z,65.40
2023-02-14T14:53:43.396Z,65.80
2023-02-14T15:01:53.694Z,66.10
2023-02-14T15:10:02.190Z,66.40
2023-02-14T15:18:09.750Z,67.20
2023-02-14T15:26:26.151Z,68.40
2023-02-14T15:34:36.218Z,69.10
2023-02-14T15:42:48.510Z,69.90
2023-02-14T15:50:55.983Z,70.20
2023-02-14T15:59:07.541Z,70.50
2023-02-14T16:07:30.256Z,70.60
2023-02-14T16:15:42.283Z,70.90
2023-02-14T16:23:48.952Z,70.90
2023-02-14T16:32:15.724Z,71.40
2023-02-14T16:40:28.442Z,71.80
2023-02-14T16:48:36.604Z,72.10
2023-02-14T16:56:47.405Z,72.30
2023-02-14T17:04:55.389Z,72.40
2023-02-14T17:13:05.719Z,72.60
2023-02-14T17:21:13.786Z,73.00
2023-02-14T17:29:20.406Z,73.20
2023-02-14T17:37:29.895Z,73.80
2023-02-14T17:45:35.482Z,74.20
2023-02-14T17:53:43.948Z,74.50
2023-02-14T18:01:49.443Z,74.60
2023-02-14T18:09:57.545Z,74.60
2023-02-14T18:18:03.164Z,74.50
2023-02-14T18:26:14.269Z,74.80
2023-02-14T18:34:19.602Z,75.10
2023-02-14T18:42:27.685Z,74.90
2023-02-14T18:50:34.206Z,75.10
2023-02-14T18:58:43.294Z,75.10
2023-02-14T19:06:49.580Z,75.60
2023-02-14T19:14:58.536Z,76.20
2023-02-14T19:23:03.963Z,76.80
2023-02-14T19:31:12.159Z,76.80
2023-02-14T19:39:19.167Z,77.00
2023-02-14T19:47:45.651Z,77.10
2023-02-14T19:55:51.884Z,77.20
2023-02-14T20:04:00.729Z,77.40
2023-02-14T20:12:06.541Z,77.70
2023-02-14T20:20:16.756Z,77.60
2023-02-14T20:28:22.039Z,77.80
2023-02-14T20:36:30.477Z,77.70
2023-02-14T20:44:35.882Z,77.70
2023-02-14T20:52:43.838Z,77.60
2023-02-14T21:00:49.497Z,77.80
2023-02-14T21:08:57.564Z,77.80
2023-02-14T21:17:14.378Z,78.60
2023-02-14T21:25:24.748Z,78.60
2023-02-14T21:33:32.232Z,78.40
2023-02-14T21:41:40.742Z,77.40
2023-02-14T21:49:58.443Z,77.20
2023-02-14T21:58:06.452Z,77.20
2023-02-14T22:06:13.320Z,77.10
2023-02-14T22:14:21.793Z,77.30
2023-02-14T22:22:27.149Z,77.10
2023-02-14T22:30:35.507Z,76.90
2023-02-14T22:38:41.520Z,77.00
2023-02-14T22:46:49.417Z,77.00
2023-02-14T22:54:55.695Z,77.10
2023-02-14T23:03:03.783Z,77.60
2023-02-14T23:11:10.764Z,77.80
2023-02-14T23:19:32.768Z,78.10
2023-02-14T23:27:40.557Z,79.30
2023-02-14T23:35:48.620Z,79.60
2023-02-14T23:43:54.000Z,79.40
2023-02-14T23:52:06.561Z,79.30
